createdAt,value
2023-03-31T00:01:26.113Z,7.50
2023-03-31T00:04:02.377Z,5.90
2023-03-31T00:06:41.952Z,6.70
2023-03-31T00:09:19.085Z,7.30
2023-03-31T00:11:47.235Z,6.20
2023-03-31T00:14:18.098Z,9.20
2023-03-31T00:16:46.454Z,6.40
2023-03-31T00:19:21.675Z,6.30
2023-03-31T00:21:51.822Z,7.10
2023-03-31T00:24:20.032Z,7.10
2023-03-31T00:26:48.269Z,5.10
2023-03-31T00:29:16.575Z,6.90
2023-03-31T00:31:45.045Z,6.00
2023-03-31T00:34:13.792Z,7.00
2023-03-31T00:36:46.535Z,4.50
2023-03-31T00:39:19.421Z,4.80
2023-03-31T00:41:47.581Z,8.60
2023-03-31T00:44:19.186Z,5.80
2023-03-31T00:46:57.264Z,4.80
2023-03-31T00:49:31.583Z,6.80
2023-03-31T00:52:23.938Z,8.00
2023-03-31T00:54:59.223Z,6.50
2023-03-31T00:57:29.729Z,8.20
2023-03-31T01:00:02.037Z,5.30
2023-03-31T01:02:30.418Z,6.20
2023-03-31T01:05:02.533Z,7.10
2023-03-31T01:07:46.448Z,6.10
2023-03-31T01:10:14.794Z,4.30
2023-03-31T01:12:49.007Z,7.50
2023-03-31T01:15:18.298Z,5.20
2023-03-31T01:17:50.521Z,6.10
2023-03-31T01:20:24.674Z,5.90
2023-03-31T01:23:21.277Z,3.80
2023-03-31T01:26:12.522Z,5.50
2023-03-31T01:29:16.278Z,5.40
2023-03-31T01:31:54.885Z,5.60
2023-03-31T01:34:48.105Z,4.40
2023-03-31T01:37:41.219Z,3.70
2023-03-31T01:40:47.128Z,8.00
2023-03-31T01:43:47.734Z,4.70
2023-03-31T01:46:29.869Z,6.80
2023-03-31T01:49:16.726Z,5.00
2023-03-31T01:52:11.414Z,10.40
2023-03-31T01:54:52.933Z,8.70
2023-03-31T01:57:37.169Z,10.10
2023-03-31T02:00:20.469Z,6.40
2023-03-31T02:03:23.303Z,8.00
2023-03-31T02:06:00.009Z,7.70
2023-03-31T02:08:35.583Z,8.80
2023-03-31T02:11:04.020Z,6.90
2023-03-31T02:13:35.144Z,7.00
2023-03-31T02:16:11.933Z,6.60
2023-03-31T02:18:42.665Z,6.20
2023-03-31T02:21:14.735Z,4.90
2023-03-31T02:23:46.063Z,5.40
2023-03-31T02:26:26.097Z,7.20
2023-03-31T02:28:54.581Z,7.10
2023-03-31T02:31:48.429Z,13.70
2023-03-31T02:34:16.907Z,11.10
2023-03-31T02:36:45.916Z,7.60
2023-03-31T02:39:20.300Z,7.50
2023-03-31T02:41:48.645Z,7.30
2023-03-31T02:44:18.717Z,8.40
2023-03-31T02:46:48.364Z,8.40
2023-03-31T02:49:19.084Z,10.30
2023-03-31T02:52:07.683Z,6.40
2023-03-31T02:55:14.279Z,18.40
2023-03-31T02:57:52.008Z,6.70
2023-03-31T03:00:36.939Z,6.20
2023-03-31T03:03:20.532Z,12.30
2023-03-31T03:06:05.996Z,7.30
2023-03-31T03:09:02.659Z,12.00
2023-03-31T03:11:49.968Z,7.40
2023-03-31T03:15:01.258Z,9.40
2023-03-31T03:17:36.079Z,9.50
2023-03-31T03:20:10.871Z,11.00
2023-03-31T03:22:40.752Z,7.80
2023-03-31T03:25:12.086Z,7.70
2023-03-31T03:27:40.954Z,7.30
2023-03-31T03:30:11.913Z,7.40
2023-03-31T03:32:40.103Z,12.90
2023-03-31T03:35:09.219Z,8.60
2023-03-31T03:37:38.061Z,12.10
2023-03-31T03:40:07.103Z,10.30
2023-03-31T03:42:35.687Z,9.70
2023-03-31T03:45:04.343Z,14.30
2023-03-31T03:47:33.137Z,10.80
2023-03-31T03:50:01.352Z,8.40
2023-03-31T03:52:29.656Z,10.30
2023-03-31T03:54:57.947Z,11.80
2023-03-31T03:57:26.648Z,10.00
2023-03-31T03:59:55.098Z,11.10
2023-03-31T04:02:25.023Z,7.30
2023-03-31T04:04:55.373Z,7.50
2023-03-31T04:07:23.765Z,9.50
2023-03-31T04:09:51.976Z,8.20
2023-03-31T04:12:20.369Z,9.40
2023-03-31T04:14:49.235Z,15.60
2023-03-31T04:17:17.476Z,8.80
2023-03-31T04:19:50.959Z,16.20
2023-03-31T04:22:20.892Z,10.50
2023-03-31T04:24:52.918Z,12.00
2023-03-31T04:27:21.291Z,11.60
2023-03-31T04:29:54.910Z,12.20
2023-03-31T04:32:23.957Z,10.10
2023-03-31T04:34:52.256Z,8.10
2023-03-31T04:37:22.765Z,13.40
2023-03-31T04:39:54.749Z,17.90
2023-03-31T04:42:24.669Z,15.90
2023-03-31T04:44:52.892Z,13.50
2023-03-31T04:47:21.281Z,22.90
2023-03-31T04:49:51.548Z,10.20
2023-03-31T04:52:20.904Z,11.90
2023-03-31T04:54:49.115Z,20.10
2023-03-31T04:57:18.186Z,24.70
2023-03-31T04:59:46.955Z,13.30
2023-03-31T05:02:24.346Z,17.60
2023-03-31T05:04:53.922Z,20.30
2023-03-31T05:07:22.213Z,13.90
2023-03-31T05:09:50.605Z,17.70
2023-03-31T05:12:18.757Z,17.40
2023-03-31T05:14:47.005Z,22.00
2023-03-31T05:17:19.171Z,13.00
2023-03-31T05:19:47.430Z,14.10
2023-03-31T05:22:17.276Z,17.60
2023-03-31T05:24:45.453Z,12.60
2023-03-31T05:27:16.375Z,13.50
2023-03-31T05:29:44.567Z,18.50
2023-03-31T05:32:13.050Z,12.00
2023-03-31T05:34:43.558Z,12.30
2023-03-31T05:37:13.331Z,13.30
2023-03-31T05:39:41.936Z,9.10
2023-03-31T05:42:10.454Z,10.40
2023-03-31T05:44:39.924Z,12.60
2023-03-31T05:47:09.324Z,12.90
2023-03-31T05:49:38.835Z,20.00
2023-03-31T05:52:08.676Z,15.90
2023-03-31T05:54:37.822Z,13.70
2023-03-31T05:57:06.176Z,11.00
2023-03-31T05:59:35.741Z,17.90
2023-03-31T06:02:05.258Z,15.40
2023-03-31T06:04:34.050Z,14.70
2023-03-31T06:07:02.341Z,19.80
2023-03-31T06:09:31.287Z,10.90
2023-03-31T06:11:59.657Z,21.70
2023-03-31T06:14:29.540Z,9.80
2023-03-31T06:16:58.217Z,35.60
2023-03-31T06:19:27.399Z,23.60
2023-03-31T06:21:59.096Z,17.40
2023-03-31T06:24:27.409Z,22.20
2023-03-31T06:26:56.144Z,25.90
2023-03-31T06:29:24.659Z,14.80
2023-03-31T06:31:52.987Z,9.40
2023-03-31T06:34:22.598Z,28.40
2023-03-31T06:36:51.321Z,14.10
2023-03-31T06:39:20.402Z,20.70
2023-03-31T06:41:48.914Z,18.00
2023-03-31T06:44:23.338Z,27.20
2023-03-31T06:46:51.702Z,10.10
2023-03-31T06:49:20.561Z,14.80
2023-03-31T06:51:48.847Z,14.00
2023-03-31T06:54:17.139Z,8.90
2023-03-31T06:56:46.323Z,30.80
2023-03-31T06:59:14.746Z,15.30
2023-03-31T07:01:43.187Z,23.50
2023-03-31T07:04:12.139Z,20.60
2023-03-31T07:06:41.865Z,17.90
2023-03-31T07:09:11.094Z,25.40
2023-03-31T07:11:39.461Z,12.50
2023-03-31T07:14:07.734Z,14.10
2023-03-31T07:16:36.473Z,15.60
2023-03-31T07:19:06.100Z,15.60
2023-03-31T07:21:41.106Z,15.40
2023-03-31T07:24:09.356Z,12.10
2023-03-31T07:26:42.727Z,9.00
2023-03-31T07:29:11.344Z,14.90
2023-03-31T07:31:39.948Z,13.80
2023-03-31T07:34:08.492Z,7.90
2023-03-31T07:36:37.028Z,12.20
2023-03-31T07:39:06.760Z,13.70
2023-03-31T07:41:36.655Z,27.60
2023-03-31T07:44:05.032Z,16.10
2023-03-31T07:46:34.051Z,7.80
2023-03-31T07:49:03.748Z,7.30
2023-03-31T07:51:32.059Z,9.30
2023-03-31T07:54:00.511Z,5.50
2023-03-31T07:56:28.912Z,5.30
2023-03-31T07:58:57.863Z,8.60
2023-03-31T08:01:30.137Z,5.60
2023-03-31T08:03:59.382Z,6.40
2023-03-31T08:06:30.114Z,6.90
2023-03-31T08:08:59.436Z,9.00
2023-03-31T08:11:29.508Z,6.80
2023-03-31T08:13:57.820Z,8.80
2023-03-31T08:16:30.482Z,29.20
2023-03-31T08:18:59.039Z,9.80
2023-03-31T08:21:29.373Z,8.30
2023-03-31T08:23:58.273Z,10.20
2023-03-31T08:26:26.694Z,8.20
2023-03-31T08:28:54.962Z,11.00
2023-03-31T08:31:26.695Z,5.50
2023-03-31T08:33:55.934Z,8.10
2023-03-31T08:36:25.252Z,6.50
2023-03-31T08:38:54.424Z,5.50
2023-03-31T08:41:57.323Z,5.80
2023-03-31T08:44:25.586Z,6.20
2023-03-31T08:46:57.414Z,7.70
2023-03-31T08:49:28.540Z,8.10
2023-03-31T08:52:04.434Z,7.70
2023-03-31T08:54:43.849Z,10.30
2023-03-31T08:57:30.811Z,25.00
2023-03-31T09:00:07.255Z,12.00
2023-03-31T09:03:12.219Z,8.20
2023-03-31T09:06:30.551Z,7.00
2023-03-31T09:09:03.795Z,5.00
2023-03-31T09:11:52.629Z,5.40
2023-03-31T09:14:38.076Z,5.80
2023-03-31T09:17:27.277Z,6.60
2023-03-31T09:20:09.533Z,4.30
2023-03-31T09:22:47.462Z,8.50
2023-03-31T09:25:27.318Z,6.60
2023-03-31T09:27:58.039Z,7.70
2023-03-31T09:30:35.976Z,11.50
2023-03-31T09:33:32.767Z,7.50
2023-03-31T09:36:02.413Z,10.00
2023-03-31T09:38:31.453Z,6.30
2023-03-31T09:41:02.760Z,7.90
2023-03-31T09:43:35.970Z,6.50
2023-03-31T09:46:15.418Z,6.30
2023-03-31T09:48:52.427Z,5.80
2023-03-31T09:51:30.946Z,38.20
2023-03-31T09:56:53.970Z,9.50
2023-03-31T09:59:41.764Z,50.20
2023-03-31T10:02:38.069Z,10.00
2023-03-31T10:05:25.219Z,7.90
2023-03-31T10:10:38.328Z,11.30
2023-03-31T10:13:11.153Z,10.70
2023-03-31T10:15:42.804Z,17.30
2023-03-31T10:18:20.018Z,16.90
2023-03-31T10:20:53.231Z,18.70
2023-03-31T10:23:33.061Z,15.50
2023-03-31T10:26:04.054Z,12.10
2023-03-31T10:28:35.343Z,17.30
2023-03-31T10:31:06.645Z,16.40
2023-03-31T10:33:42.829Z,13.00
2023-03-31T10:36:27.862Z,13.50
2023-03-31T10:38:58.070Z,12.30
2023-03-31T10:41:29.436Z,10.30
2023-03-31T10:43:59.971Z,13.60
2023-03-31T10:46:53.188Z,14.40
2023-03-31T10:49:21.672Z,12.10
2023-03-31T10:51:55.438Z,16.70
2023-03-31T10:54:24.179Z,11.80
2023-03-31T10:56:58.066Z,12.00
2023-03-31T10:59:38.843Z,13.30
2023-03-31T11:02:16.364Z,12.30
2023-03-31T11:04:56.755Z,11.20
2023-03-31T11:07:29.825Z,15.80
2023-03-31T11:10:17.102Z,13.70
2023-03-31T11:12:56.385Z,15.20
2023-03-31T11:15:55.414Z,16.10
2023-03-31T11:19:05.962Z,17.50
2023-03-31T11:21:53.467Z,17.60
2023-03-31T11:24:42.560Z,12.20
2023-03-31T11:27:17.353Z,8.80
2023-03-31T11:29:51.612Z,11.60
2023-03-31T11:32:34.178Z,11.70
2023-03-31T11:35:18.135Z,9.40
2023-03-31T11:38:17.840Z,11.40
2023-03-31T11:41:17.339Z,11.20
2023-03-31T11:43:49.173Z,10.20
2023-03-31T11:46:37.944Z,12.00
2023-03-31T11:49:28.875Z,10.30
2023-03-31T11:52:03.311Z,13.00
2023-03-31T11:54:56.195Z,10.70
2023-03-31T11:57:32.144Z,12.90
2023-03-31T12:02:58.686Z,12.30
2023-03-31T12:05:28.887Z,13.00
2023-03-31T12:08:10.939Z,12.20
2023-03-31T12:10:48.395Z,15.30
2023-03-31T12:13:30.006Z,11.20
2023-03-31T12:16:23.438Z,16.60
2023-03-31T12:19:06.074Z,13.50
2023-03-31T12:21:37.961Z,8.80
2023-03-31T12:24:08.400Z,17.00
2023-03-31T12:26:59.129Z,13.20
2023-03-31T12:30:05.918Z,11.30
2023-03-31T12:32:40.641Z,13.90
2023-03-31T12:35:17.931Z,15.30
2023-03-31T12:37:52.030Z,19.70
2023-03-31T12:40:36.010Z,17.90
2023-03-31T12:43:17.702Z,10.40
2023-03-31T12:45:55.977Z,14.00
2023-03-31T12:48:33.791Z,14.70
2023-03-31T12:51:31.267Z,14.40
2023-03-31T12:54:10.268Z,15.50
2023-03-31T12:57:14.187Z,15.50
2023-03-31T12:59:45.243Z,12.00
2023-03-31T13:02:15.238Z,11.80
2023-03-31T13:04:44.939Z,13.70
2023-03-31T13:07:37.819Z,11.10
2023-03-31T13:10:18.603Z,11.50
2023-03-31T13:13:03.874Z,13.60
2023-03-31T13:15:33.315Z,13.20
2023-03-31T13:18:07.072Z,16.30
2023-03-31T13:20:41.817Z,13.50
2023-03-31T13:23:31.593Z,14.30
2023-03-31T13:26:01.712Z,15.00
2023-03-31T13:28:42.548Z,18.00
2023-03-31T13:31:14.533Z,17.40
2023-03-31T13:33:59.896Z,18.30
2023-03-31T13:36:34.474Z,17.20
2023-03-31T13:39:29.331Z,19.00
2023-03-31T13:42:20.938Z,20.00
2023-03-31T13:44:55.991Z,18.90
2023-03-31T13:47:59.572Z,18.50
2023-03-31T13:50:46.331Z,18.90
2023-03-31T13:53:47.559Z,19.40
2023-03-31T13:56:43.329Z,19.40
2023-03-31T13:59:15.902Z,18.60
2023-03-31T14:02:05.831Z,18.20
2023-03-31T14:05:09.201Z,18.30
2023-03-31T14:07:44.704Z,17.40
2023-03-31T14:10:24.672Z,18.70
2023-03-31T14:12:52.925Z,18.40
2023-03-31T14:15:21.809Z,20.10
2023-03-31T14:17:50.160Z,18.00
2023-03-31T14:20:33.303Z,19.50
2023-03-31T14:23:19.939Z,16.30
2023-03-31T14:26:15.512Z,19.70
2023-03-31T14:28:51.600Z,18.10
2023-03-31T14:34:29.118Z,17.90
2023-03-31T14:37:10.288Z,13.80
2023-03-31T14:39:45.475Z,15.60
2023-03-31T14:42:19.107Z,15.40
2023-03-31T14:44:48.754Z,18.80
2023-03-31T14:47:23.026Z,16.20
2023-03-31T14:50:15.548Z,17.40
2023-03-31T14:52:54.617Z,16.00
2023-03-31T14:55:39.342Z,16.60
2023-03-31T14:58:30.581Z,15.90
2023-03-31T15:00:59.562Z,18.00
2023-03-31T15:03:28.109Z,16.80
2023-03-31T15:05:59.021Z,18.40
2023-03-31T15:08:29.880Z,14.80
2023-03-31T15:14:00.677Z,15.00
2023-03-31T15:16:42.721Z,14.80
2023-03-31T15:19:19.455Z,13.20
2023-03-31T15:21:56.565Z,10.80
2023-03-31T15:24:24.962Z,18.40
2023-03-31T15:27:23.501Z,21.50
2023-03-31T15:30:01.940Z,16.40
2023-03-31T15:32:35.399Z,17.10
2023-03-31T15:35:18.703Z,23.40
2023-03-31T15:37:54.428Z,16.30
2023-03-31T15:40:44.219Z,15.50
2023-03-31T15:45:52.698Z,18.30
2023-03-31T15:48:49.435Z,13.20
2023-03-31T15:51:25.063Z,13.20
2023-03-31T15:53:54.736Z,13.30
2023-03-31T15:56:33.535Z,14.00
2023-03-31T15:59:06.258Z,15.80
2023-03-31T16:01:46.532Z,12.40
2023-03-31T16:04:18.225Z,14.70
2023-03-31T16:07:03.830Z,15.40
2023-03-31T16:09:47.891Z,18.80
2023-03-31T16:12:43.766Z,17.70
2023-03-31T16:15:18.734Z,14.80
2023-03-31T16:17:52.452Z,14.20
2023-03-31T16:20:27.254Z,15.70
2023-03-31T16:23:01.298Z,16.10
2023-03-31T16:25:31.916Z,19.10
2023-03-31T16:28:02.803Z,15.00
2023-03-31T16:30:42.515Z,20.30
2023-03-31T16:33:17.780Z,18.90
2023-03-31T16:35:53.746Z,16.70
2023-03-31T16:38:25.164Z,16.50
2023-03-31T16:40:56.824Z,19.30
2023-03-31T16:43:31.309Z,19.60
2023-03-31T16:46:06.413Z,14.10
2023-03-31T16:48:37.462Z,16.30
2023-03-31T16:51:05.946Z,20.20
2023-03-31T16:53:36.001Z,15.10
2023-03-31T16:56:08.528Z,21.80
2023-03-31T16:58:38.773Z,19.50
2023-03-31T17:01:08.594Z,21.20
2023-03-31T17:03:38.963Z,25.90
2023-03-31T17:06:13.347Z,22.90
2023-03-31T17:08:44.125Z,22.70
2023-03-31T17:11:14.974Z,25.10
2023-03-31T17:13:45.343Z,26.20
2023-03-31T17:16:22.174Z,25.70
2023-03-31T17:18:58.389Z,23.90
2023-03-31T17:21:27.514Z,21.60
2023-03-31T17:23:55.954Z,20.20
2023-03-31T17:26:27.367Z,24.00
2023-03-31T17:28:55.640Z,24.20
2023-03-31T17:31:24.932Z,22.20
2023-03-31T17:33:53.511Z,22.00
2023-03-31T17:36:22.503Z,25.90
2023-03-31T17:38:51.813Z,22.40
2023-03-31T17:41:26.467Z,23.30
2023-03-31T17:43:56.938Z,24.50
2023-03-31T17:46:26.036Z,27.80
2023-03-31T17:48:56.714Z,23.50
2023-03-31T17:51:25.101Z,28.60
2023-03-31T17:53:54.704Z,28.80
2023-03-31T17:56:27.473Z,30.60
2023-03-31T17:58:57.599Z,30.90
2023-03-31T18:01:27.870Z,35.40
2023-03-31T18:04:01.448Z,35.30
2023-03-31T18:06:32.115Z,31.60
2023-03-31T18:09:05.822Z,31.60
2023-03-31T18:11:34.650Z,37.00
2023-03-31T18:14:03.069Z,36.20
2023-03-31T18:16:31.957Z,34.30
2023-03-31T18:19:06.370Z,28.40
2023-03-31T18:21:35.628Z,33.30
2023-03-31T18:24:04.365Z,29.70
2023-03-31T18:26:33.325Z,31.70
2023-03-31T18:29:01.680Z,36.20
2023-03-31T18:31:33.431Z,29.30
2023-03-31T18:34:05.075Z,32.90
2023-03-31T18:36:35.833Z,33.50
2023-03-31T18:39:04.310Z,27.20
2023-03-31T18:41:37.535Z,30.80
2023-03-31T18:44:06.145Z,39.50
2023-03-31T18:49:14.656Z,32.20
2023-03-31T18:51:42.940Z,30.90
2023-03-31T18:54:11.694Z,25.70
2023-03-31T18:56:41.601Z,27.60
2023-03-31T18:59:10.719Z,20.90
2023-03-31T19:01:40.604Z,20.90
2023-03-31T19:04:09.846Z,18.80
2023-03-31T19:06:38.113Z,18.80
2023-03-31T19:09:07.179Z,17.40
2023-03-31T19:11:36.405Z,16.10
2023-03-31T19:14:05.226Z,18.10
2023-03-31T19:16:40.284Z,16.10
2023-03-31T19:19:10.360Z,13.30
2023-03-31T19:21:39.507Z,17.50
2023-03-31T19:24:09.354Z,13.50
2023-03-31T19:26:37.887Z,14.10
2023-03-31T19:29:06.376Z,15.20
2023-03-31T19:31:38.580Z,15.70
2023-03-31T19:34:11.788Z,17.20
2023-03-31T19:36:41.924Z,14.60
2023-03-31T19:39:11.955Z,15.30
2023-03-31T19:41:40.731Z,15.60
2023-03-31T19:44:09.046Z,16.00
2023-03-31T19:46:38.166Z,12.70
2023-03-31T19:49:06.540Z,13.20
2023-03-31T19:51:34.781Z,16.70
2023-03-31T19:54:03.206Z,12.80
2023-03-31T19:56:32.472Z,13.80
2023-03-31T19:59:00.913Z,14.50
2023-03-31T20:01:29.633Z,11.30
2023-03-31T20:04:00.961Z,19.30
2023-03-31T20:06:32.494Z,14.20
2023-03-31T20:09:02.174Z,11.50
2023-03-31T20:11:32.313Z,15.10
2023-03-31T20:14:01.418Z,14.10
2023-03-31T20:16:31.635Z,13.10
2023-03-31T20:19:04.459Z,15.30
2023-03-31T20:21:35.844Z,11.10
2023-03-31T20:24:04.709Z,11.30
2023-03-31T20:26:34.784Z,14.20
2023-03-31T20:29:04.393Z,12.10
2023-03-31T20:31:37.884Z,12.40
2023-03-31T20:34:12.632Z,11.60
2023-03-31T20:36:43.424Z,10.40
2023-03-31T20:39:14.369Z,10.60
2023-03-31T20:41:43.672Z,9.50
2023-03-31T20:44:15.793Z,12.80
2023-03-31T20:46:45.027Z,8.20
2023-03-31T20:49:13.691Z,11.10
2023-03-31T20:51:42.799Z,10.90
2023-03-31T20:54:12.087Z,9.90
2023-03-31T20:56:41.834Z,8.00
2023-03-31T20:59:15.250Z,7.80
2023-03-31T21:01:45.415Z,6.80
2023-03-31T21:04:14.165Z,7.10
2023-03-31T21:06:47.565Z,8.50
2023-03-31T21:09:17.277Z,7.80
2023-03-31T21:11:46.022Z,7.60
2023-03-31T21:14:15.977Z,6.80
2023-03-31T21:16:45.176Z,9.80
2023-03-31T21:19:13.521Z,6.60
2023-03-31T21:21:43.485Z,7.80
2023-03-31T21:24:12.850Z,6.60
2023-03-31T21:26:41.315Z,7.00
2023-03-31T21:29:09.769Z,7.30
2023-03-31T21:31:38.064Z,9.30
2023-03-31T21:34:06.437Z,7.40
2023-03-31T21:36:35.423Z,10.10
2023-03-31T21:39:05.240Z,12.00
2023-03-31T21:41:33.612Z,10.90
2023-03-31T21:44:03.018Z,8.10
2023-03-31T21:46:34.859Z,8.50
2023-03-31T21:49:04.024Z,10.00
2023-03-31T21:51:32.854Z,7.90
2023-03-31T21:54:01.113Z,9.40
2023-03-31T21:56:32.440Z,7.60
2023-03-31T21:59:02.520Z,10.00
2023-03-31T22:01:31.665Z,9.10
2023-03-31T22:04:01.508Z,9.30
2023-03-31T22:06:29.870Z,11.20
2023-03-31T22:08:58.076Z,8.50
2023-03-31T22:11:27.275Z,10.30
2023-03-31T22:13:55.517Z,8.40
2023-03-31T22:16:23.837Z,9.90
2023-03-31T22:18:53.661Z,8.20
2023-03-31T22:21:25.731Z,9.40
2023-03-31T22:23:56.525Z,8.10
2023-03-31T22:26:27.239Z,7.70
2023-03-31T22:28:56.152Z,7.80
2023-03-31T22:31:26.459Z,9.90
2023-03-31T22:33:55.045Z,9.70
2023-03-31T22:36:23.392Z,10.20
2023-03-31T22:38:51.697Z,7.00
2023-03-31T22:41:19.889Z,10.20
2023-03-31T22:43:48.171Z,8.50
2023-03-31T22:46:16.763Z,7.80
2023-03-31T22:48:49.748Z,9.00
2023-03-31T22:51:18.287Z,10.40
2023-03-31T22:53:54.797Z,9.10
2023-03-31T22:56:24.700Z,9.90
2023-03-31T22:58:57.061Z,11.60
2023-03-31T23:01:25.556Z,13.50
2023-03-31T23:03:55.379Z,9.00
2023-03-31T23:06:24.040Z,13.50
2023-03-31T23:08:52.673Z,9.80
2023-03-31T23:11:21.062Z,11.50
2023-03-31T23:13:49.370Z,10.10
2023-03-31T23:16:17.850Z,11.30
2023-03-31T23:18:48.160Z,9.40
2023-03-31T23:21:21.785Z,10.20
2023-03-31T23:23:55.757Z,9.50
2023-03-31T23:26:26.445Z,11.40
2023-03-31T23:28:55.637Z,9.30
2023-03-31T23:31:27.219Z,9.50
2023-03-31T23:33:58.030Z,10.10
2023-03-31T23:36:27.633Z,9.60
2023-03-31T23:38:59.169Z,10.60
2023-03-31T23:41:27.529Z,10.40
2023-03-31T23:43:57.875Z,9.10
2023-03-31T23:46:26.642Z,10.20
2023-03-31T23:48:56.013Z,10.90
2023-03-31T23:51:26.810Z,15.50
2023-03-31T23:53:55.032Z,10.50
2023-03-31T23:56:23.710Z,11.10
2023-03-31T23:58:51.950Z,11.00
